Harney Peak, South Dakota
Current Conditions -  °F | °C
As of 11:53 AM on Thursday 30 Oct 2014 (Local Time) from KCUT Reporting Station
Broken Clouds Broken Clouds  
Wind Chill: 53°   Ceiling: 5500
Heat Index: 53°   Visibility: 10mi
Dew Point: 27°   Wind: 10mph
Humidity: 37%   Direction: 10°N
Pressure: 30.33"   Gusts: 16mph
Location:  43.6653°N, 103.766°W
Report Text: KCUT 301753Z AUTO 01009G14KT 330V040 10SM BKN055 12/M03 A3033 RMK AO2 SLP244 T01171028 10122 20000 51009
Loading
Personal Weather Stations






























Interactive Weather Map
Tropical Storm Tracking
New forecast layout! Learn more

10-Day Weather Forecast

Advertisements
Track Severe Weather on mobile